ダラス/フォートワース の空港の天気 - METARとTAF

ダラス・フォートワース国際空港 ( KDFW / DFW ) - アメリカ テキサス州ダラス & フォートワース
飛行場実況気象(Metar)
観測時間05/28 17:53 CDT (05/28 22:53 UTC)
風向・風速南 10m/s
視程10km以上
天気現象
少しの雲 雲底高度 7620m
気温33.3℃
湿度38%
気圧1004.8hPa
METARKDFW 282253Z 17019KT 10SM FEW250 33/17 A2970 RMK AO2 PK WND 16030/2217 SLP048 T03330172
過去の天気等 Google飛行場航空写真 Wunderground天気予報

過去48時間のMETAR

飛行場予報(TAF)
発表時間: 5/28 16:00 CDT (5/28 21:00 UTC)
予報対象時間: 28日16時 CDT ~ 29日19時 CDT
風向・風速南 8m/s 瞬間風速 13m/s
視程10km以上
少しの雲 雲底高度 7620m
KDFW 282100Z 2821/2924 17016G26KT P6SM FEW250